createdAt,value
2019-04-30T00:01:26.003Z,9.30
2019-04-30T00:04:16.766Z,9.30
2019-04-30T00:06:46.186Z,9.20
2019-04-30T00:09:18.955Z,9.10
2019-04-30T00:11:50.705Z,9.00
2019-04-30T00:14:18.862Z,8.90
2019-04-30T00:16:48.241Z,8.90
2019-04-30T00:19:19.819Z,8.80
2019-04-30T00:21:56.970Z,8.80
2019-04-30T00:24:21.029Z,8.80
2019-04-30T00:26:52.548Z,8.70
2019-04-30T00:29:27.050Z,8.70
2019-04-30T00:31:59.294Z,8.60
2019-04-30T00:34:25.515Z,8.60
2019-04-30T00:36:55.951Z,8.60
2019-04-30T00:39:27.298Z,8.60
2019-04-30T00:41:56.651Z,8.60
2019-04-30T00:44:28.322Z,8.50
2019-04-30T00:47:00.611Z,8.40
2019-04-30T00:49:29.569Z,8.40
2019-04-30T00:51:58.824Z,8.30
2019-04-30T00:54:30.848Z,8.20
2019-04-30T00:57:04.558Z,8.10
2019-04-30T00:59:30.490Z,8.10
2019-04-30T01:02:19.987Z,8.10
2019-04-30T01:04:51.542Z,8.00
2019-04-30T01:07:21.932Z,8.00
2019-04-30T01:09:51.630Z,8.00
2019-04-30T01:12:25.532Z,8.10
2019-04-30T01:14:52.222Z,8.00
2019-04-30T01:17:21.851Z,7.80
2019-04-30T01:19:54.469Z,7.80
2019-04-30T01:22:28.051Z,8.00
2019-04-30T01:24:53.456Z,7.80
2019-04-30T01:27:23.028Z,7.70
2019-04-30T01:29:54.100Z,7.70
2019-04-30T01:32:23.358Z,7.50
2019-04-30T01:34:54.006Z,7.60
2019-04-30T01:37:28.352Z,7.60
2019-04-30T01:39:58.807Z,7.50
2019-04-30T01:42:28.476Z,7.50
2019-04-30T01:44:58.959Z,7.40
2019-04-30T01:47:31.378Z,7.40
2019-04-30T01:50:04.707Z,7.40
2019-04-30T01:52:49.511Z,7.40
2019-04-30T01:55:20.723Z,7.40
2019-04-30T01:58:19.505Z,7.30
2019-04-30T02:00:52.131Z,7.30
2019-04-30T02:03:21.562Z,7.30
2019-04-30T02:05:50.999Z,7.20
2019-04-30T02:08:20.323Z,7.20
2019-04-30T02:10:51.450Z,7.10
2019-04-30T02:13:20.943Z,7.10
2019-04-30T02:15:50.826Z,7.00
2019-04-30T02:18:20.510Z,7.00
2019-04-30T02:20:50.338Z,7.00
2019-04-30T02:23:20.087Z,7.00
2019-04-30T02:25:50.774Z,7.10
2019-04-30T02:28:20.201Z,7.00
2019-04-30T02:30:50.701Z,7.00
2019-04-30T02:33:20.681Z,7.00
2019-04-30T02:36:10.364Z,6.80
2019-04-30T02:38:49.458Z,6.80
2019-04-30T02:41:20.815Z,6.90
2019-04-30T02:43:51.996Z,6.80
2019-04-30T02:46:24.727Z,6.70
2019-04-30T02:48:59.909Z,6.70
2019-04-30T02:51:32.015Z,6.70
2019-04-30T02:54:13.181Z,6.70
2019-04-30T02:56:44.313Z,6.60
2019-04-30T02:59:13.737Z,6.50
2019-04-30T03:01:43.252Z,6.50
2019-04-30T03:04:12.576Z,6.50
2019-04-30T03:07:09.677Z,6.50
2019-04-30T03:09:39.387Z,6.50
2019-04-30T03:12:08.761Z,6.50
2019-04-30T03:14:52.839Z,6.50
2019-04-30T03:17:39.985Z,6.50
2019-04-30T03:22:46.989Z,6.50
2019-04-30T03:25:19.304Z,6.40
2019-04-30T03:27:49.853Z,6.30
2019-04-30T03:30:21.732Z,6.30
2019-04-30T03:33:07.180Z,6.30
2019-04-30T03:35:46.576Z,6.30
2019-04-30T03:38:11.110Z,6.30
2019-04-30T03:40:40.606Z,6.30
2019-04-30T03:43:10.356Z,6.30
2019-04-30T03:45:40.393Z,6.30
2019-04-30T03:48:10.347Z,6.30
2019-04-30T03:50:50.416Z,6.20
2019-04-30T03:53:13.579Z,6.20
2019-04-30T03:55:44.870Z,6.10
2019-04-30T03:58:14.136Z,6.10
2019-04-30T04:01:00.561Z,6.10
2019-04-30T04:03:33.279Z,6.10
2019-04-30T04:06:29.254Z,6.10
2019-04-30T04:09:22.374Z,6.10
2019-04-30T04:11:51.516Z,6.00
2019-04-30T04:14:20.851Z,6.10
2019-04-30T04:16:50.902Z,6.10
2019-04-30T04:19:20.433Z,6.00
2019-04-30T04:21:51.035Z,6.00
2019-04-30T04:24:20.622Z,6.00
2019-04-30T04:26:50.512Z,6.00
2019-04-30T04:29:19.890Z,6.00
2019-04-30T04:31:50.520Z,6.00
2019-04-30T04:34:20.044Z,6.00
2019-04-30T04:36:50.463Z,6.10
2019-04-30T04:39:20.559Z,6.10
2019-04-30T04:41:54.411Z,6.00
2019-04-30T04:44:23.633Z,6.00
2019-04-30T04:46:52.946Z,6.10
2019-04-30T04:49:25.060Z,6.20
2019-04-30T04:51:59.048Z,6.10
2019-04-30T04:54:29.813Z,6.10
2019-04-30T04:57:13.375Z,6.10
2019-04-30T04:59:30.143Z,6.10
2019-04-30T05:02:02.222Z,6.20
2019-04-30T05:04:34.328Z,6.30
2019-04-30T05:07:04.966Z,6.30
2019-04-30T05:09:37.130Z,6.40
2019-04-30T05:12:08.156Z,6.30
2019-04-30T05:14:40.031Z,6.50
2019-04-30T05:49:30.530Z,6.70
2019-04-30T05:52:00.661Z,6.90
2019-04-30T05:54:31.709Z,7.00
2019-04-30T05:57:02.289Z,7.20
2019-04-30T05:59:31.878Z,7.30
2019-04-30T06:02:01.647Z,7.40
2019-04-30T06:04:31.728Z,7.40
2019-04-30T06:07:08.697Z,7.20
2019-04-30T06:09:52.623Z,7.20
2019-04-30T06:12:44.111Z,7.30
2019-04-30T06:15:44.808Z,7.60
2019-04-30T06:18:14.213Z,7.50
2019-04-30T06:20:43.651Z,7.70
2019-04-30T06:23:13.068Z,7.70
2019-04-30T06:25:56.134Z,7.80
2019-04-30T06:28:14.953Z,7.80
2019-04-30T06:30:49.263Z,7.80
2019-04-30T06:33:20.219Z,7.80
2019-04-30T06:35:50.133Z,7.80
2019-04-30T06:38:20.300Z,7.90
2019-04-30T06:40:49.788Z,8.00
2019-04-30T06:43:19.954Z,8.00
2019-04-30T06:45:51.206Z,8.10
2019-04-30T06:48:20.825Z,8.20
2019-04-30T06:50:51.440Z,8.20
2019-04-30T06:53:22.329Z,8.20
2019-04-30T06:55:51.642Z,8.10
2019-04-30T06:58:21.015Z,8.20
2019-04-30T07:00:50.498Z,8.30
2019-04-30T07:03:20.226Z,8.40
2019-04-30T07:05:49.513Z,8.50
2019-04-30T07:08:40.495Z,8.60
2019-04-30T07:11:21.843Z,8.70
2019-04-30T07:13:52.209Z,8.90
2019-04-30T07:16:21.845Z,8.80
2019-04-30T07:18:51.446Z,8.90
2019-04-30T07:21:22.334Z,8.80
2019-04-30T07:23:51.811Z,9.00
2019-04-30T07:26:24.449Z,8.90
2019-04-30T07:28:55.328Z,9.00
2019-04-30T07:31:24.511Z,9.10
2019-04-30T07:33:54.165Z,9.20
2019-04-30T07:36:42.386Z,9.10
2019-04-30T07:38:56.825Z,9.20
2019-04-30T07:41:26.450Z,9.20
2019-04-30T07:43:55.782Z,9.40
2019-04-30T07:46:25.095Z,9.40
2019-04-30T07:49:00.171Z,9.20
2019-04-30T07:51:43.448Z,9.40
2019-04-30T07:54:14.248Z,9.60
2019-04-30T07:56:43.559Z,9.80
2019-04-30T07:59:14.207Z,9.90
2019-04-30T08:02:03.718Z,9.80
2019-04-30T08:04:32.662Z,10.00
2019-04-30T08:07:05.105Z,10.20
2019-04-30T08:09:41.899Z,10.30
2019-04-30T08:12:09.258Z,10.20
2019-04-30T08:14:39.306Z,10.60
2019-04-30T08:17:10.434Z,10.60
2019-04-30T08:19:41.059Z,10.90
2019-04-30T08:22:10.438Z,11.00
2019-04-30T08:24:39.819Z,11.10
2019-04-30T08:27:09.756Z,11.30
2019-04-30T08:33:32.158Z,11.50
2019-04-30T08:36:02.966Z,11.70
2019-04-30T08:38:32.522Z,11.80
2019-04-30T08:41:09.680Z,11.70
2019-04-30T08:43:42.975Z,11.30
2019-04-30T08:46:14.052Z,11.10
2019-04-30T08:48:50.451Z,11.30
2019-04-30T08:51:14.800Z,11.60
2019-04-30T08:53:45.721Z,11.80
2019-04-30T08:56:15.568Z,11.90
2019-04-30T08:58:54.936Z,12.10
2019-04-30T09:01:59.999Z,12.20
2019-04-30T09:04:29.839Z,12.10
2019-04-30T09:07:00.988Z,12.00
2019-04-30T09:09:30.460Z,12.30
2019-04-30T09:12:01.531Z,12.50
2019-04-30T09:14:30.860Z,12.50
2019-04-30T09:17:00.225Z,12.70
2019-04-30T09:19:29.960Z,12.80
2019-04-30T09:21:59.399Z,12.90
2019-04-30T09:24:30.747Z,13.00
2019-04-30T09:26:59.780Z,12.90
2019-04-30T09:29:34.129Z,12.90
2019-04-30T09:32:03.418Z,13.00
2019-04-30T09:34:32.771Z,13.00
2019-04-30T09:37:05.028Z,13.20
2019-04-30T09:39:34.304Z,13.20
2019-04-30T09:42:03.585Z,13.30
2019-04-30T09:44:33.587Z,13.40
2019-04-30T09:47:02.881Z,13.50
2019-04-30T09:49:32.150Z,13.60
2019-04-30T09:52:01.607Z,13.60
2019-04-30T09:54:31.404Z,13.40
2019-04-30T09:57:01.805Z,13.60
2019-04-30T09:59:31.572Z,13.80
2019-04-30T10:02:00.953Z,13.80
2019-04-30T10:04:31.049Z,14.00
2019-04-30T10:07:03.602Z,14.00
2019-04-30T10:09:34.343Z,14.10
2019-04-30T10:12:09.753Z,14.40
2019-04-30T10:14:41.023Z,14.60
2019-04-30T10:17:21.871Z,14.60
2019-04-30T10:19:51.153Z,14.70
2019-04-30T10:22:21.729Z,14.50
2019-04-30T10:24:54.466Z,14.60
2019-04-30T10:31:15.164Z,15.20
2019-04-30T10:33:48.529Z,15.50
2019-04-30T10:36:35.932Z,15.50
2019-04-30T10:39:09.055Z,15.60
2019-04-30T10:41:39.536Z,15.60
2019-04-30T10:44:19.380Z,15.60
2019-04-30T10:46:51.976Z,15.60
2019-04-30T10:49:21.542Z,15.70
2019-04-30T10:51:52.995Z,15.50
2019-04-30T10:54:25.770Z,15.70
2019-04-30T10:56:54.923Z,15.70
2019-04-30T10:59:24.296Z,15.70
2019-04-30T11:01:53.730Z,15.90
2019-04-30T11:04:24.345Z,15.50
2019-04-30T11:06:53.722Z,15.40
2019-04-30T11:09:23.779Z,15.60
2019-04-30T11:11:53.223Z,15.80
2019-04-30T11:14:22.725Z,16.10
2019-04-30T11:16:52.276Z,16.30
2019-04-30T11:19:23.785Z,16.50
2019-04-30T11:21:53.279Z,16.50
2019-04-30T11:24:22.755Z,16.30
2019-04-30T11:26:52.881Z,16.30
2019-04-30T11:29:23.152Z,16.70
2019-04-30T11:31:58.475Z,17.00
2019-04-30T11:34:28.295Z,17.20
2019-04-30T11:36:57.750Z,17.20
2019-04-30T11:39:29.646Z,17.30
2019-04-30T11:41:58.529Z,17.10
2019-04-30T11:44:31.253Z,16.90
2019-04-30T11:47:34.316Z,16.70
2019-04-30T11:50:06.411Z,16.50
2019-04-30T11:52:35.889Z,17.10
2019-04-30T11:55:09.502Z,17.40
2019-04-30T11:57:39.785Z,17.30
2019-04-30T12:00:13.054Z,17.60
2019-04-30T12:02:42.940Z,17.70
2019-04-30T12:05:16.098Z,18.00
2019-04-30T12:08:09.652Z,18.20
2019-04-30T12:11:06.005Z,18.00
2019-04-30T12:13:35.610Z,18.20
2019-04-30T12:16:05.199Z,18.20
2019-04-30T12:18:34.891Z,18.00
2019-04-30T12:21:04.339Z,18.00
2019-04-30T12:23:33.564Z,18.30
2019-04-30T12:26:04.645Z,18.50
2019-04-30T12:28:35.294Z,18.70
2019-04-30T12:31:05.973Z,18.80
2019-04-30T12:33:37.322Z,18.80
2019-04-30T12:36:09.048Z,18.90
2019-04-30T12:38:38.739Z,19.20
2019-04-30T12:41:08.795Z,19.00
2019-04-30T12:43:38.122Z,19.50
2019-04-30T12:46:09.702Z,19.40
2019-04-30T12:48:53.912Z,19.30
2019-04-30T12:51:29.104Z,19.60
2019-04-30T12:54:07.213Z,19.40
2019-04-30T12:56:55.563Z,19.10
2019-04-30T12:59:24.806Z,19.10
2019-04-30T13:01:56.280Z,19.00
2019-04-30T13:04:25.655Z,19.10
2019-04-30T13:06:55.175Z,19.20
2019-04-30T13:09:26.842Z,19.20
2019-04-30T13:11:59.669Z,19.20
2019-04-30T13:14:30.163Z,19.20
2019-04-30T13:16:59.391Z,19.20
2019-04-30T13:19:28.754Z,19.30
2019-04-30T13:21:58.701Z,19.50
2019-04-30T13:24:31.079Z,19.50
2019-04-30T13:26:59.597Z,19.60
2019-04-30T13:29:33.671Z,19.70
2019-04-30T13:32:03.079Z,19.50
2019-04-30T13:34:49.374Z,19.70
2019-04-30T13:37:19.217Z,20.10
2019-04-30T13:39:56.413Z,20.00
2019-04-30T13:42:32.791Z,20.20
2019-04-30T13:45:02.138Z,20.40
2019-04-30T13:47:31.503Z,20.40
2019-04-30T13:50:00.898Z,20.20
2019-04-30T13:52:31.099Z,20.00
2019-04-30T13:55:00.325Z,19.80
2019-04-30T13:57:34.561Z,20.00
2019-04-30T14:00:04.803Z,20.40
2019-04-30T14:02:54.246Z,20.70
2019-04-30T14:05:23.527Z,20.80
2019-04-30T14:08:20.024Z,20.70
2019-04-30T14:10:49.449Z,20.70
2019-04-30T14:13:19.878Z,20.80
2019-04-30T14:15:51.397Z,21.00
2019-04-30T14:18:28.425Z,21.20
2019-04-30T14:20:51.907Z,21.50
2019-04-30T14:23:23.163Z,21.10
2019-04-30T14:25:56.517Z,21.00
2019-04-30T14:28:23.627Z,21.40
2019-04-30T14:30:54.074Z,21.40
2019-04-30T14:33:26.504Z,21.10
2019-04-30T14:35:54.294Z,20.40
2019-04-30T14:38:25.785Z,20.10
2019-04-30T14:40:55.414Z,20.00
2019-04-30T14:43:34.617Z,20.30
2019-04-30T14:46:33.345Z,20.30
2019-04-30T14:49:21.937Z,20.30
2019-04-30T14:51:51.416Z,20.30
2019-04-30T14:54:32.201Z,20.50
2019-04-30T14:57:11.080Z,20.30
2019-04-30T15:00:02.607Z,20.40
2019-04-30T15:02:40.153Z,20.60
2019-04-30T15:05:09.731Z,20.70
2019-04-30T15:07:41.625Z,20.40
2019-04-30T15:10:11.286Z,19.90
2019-04-30T15:12:40.623Z,19.90
2019-04-30T15:15:10.314Z,20.00
2019-04-30T15:17:41.276Z,19.90
2019-04-30T15:20:11.315Z,19.90
2019-04-30T15:22:45.824Z,20.00
2019-04-30T15:25:15.336Z,19.90
2019-04-30T15:27:49.126Z,19.80
2019-04-30T15:30:21.779Z,19.70
2019-04-30T15:32:50.343Z,19.70
2019-04-30T15:35:19.808Z,19.70
2019-04-30T15:37:50.787Z,19.50
2019-04-30T15:40:20.411Z,19.60
2019-04-30T15:42:51.542Z,19.60
2019-04-30T15:45:46.326Z,19.60
2019-04-30T15:48:41.190Z,19.70
2019-04-30T15:51:16.654Z,19.70
2019-04-30T15:53:54.520Z,19.50
2019-04-30T15:56:35.167Z,19.30
2019-04-30T15:59:19.324Z,19.20
2019-04-30T16:01:54.664Z,19.30
2019-04-30T16:04:33.313Z,19.30
2019-04-30T16:07:08.393Z,19.30
2019-04-30T16:09:44.473Z,19.20
2019-04-30T16:12:30.165Z,19.10
2019-04-30T16:15:51.995Z,19.00
2019-04-30T16:22:44.581Z,18.80
2019-04-30T16:29:01.334Z,18.60
2019-04-30T16:31:36.404Z,18.70
2019-04-30T16:34:43.254Z,18.50
2019-04-30T16:37:12.603Z,18.30
2019-04-30T16:39:42.814Z,18.30
2019-04-30T16:42:31.453Z,18.20
2019-04-30T16:45:01.280Z,18.10
2019-04-30T16:47:31.029Z,18.20
2019-04-30T16:50:00.304Z,18.40
2019-04-30T16:52:29.551Z,18.40
2019-04-30T16:55:17.732Z,18.40
2019-04-30T16:57:49.830Z,18.40
2019-04-30T17:03:45.927Z,18.40
2019-04-30T17:06:20.879Z,18.30
2019-04-30T17:08:57.889Z,18.20
2019-04-30T17:11:44.702Z,18.10
2019-04-30T17:14:16.372Z,18.20
2019-04-30T17:16:45.588Z,18.10
2019-04-30T17:19:16.740Z,17.90
2019-04-30T17:21:45.974Z,17.70
2019-04-30T17:24:19.319Z,17.60
2019-04-30T17:27:21.966Z,17.40
2019-04-30T17:29:48.107Z,17.20
2019-04-30T17:32:23.047Z,17.00
2019-04-30T17:35:01.359Z,16.90
2019-04-30T17:37:31.601Z,16.90
2019-04-30T17:40:02.346Z,16.90
2019-04-30T18:24:19.594Z,15.50
2019-04-30T18:29:36.536Z,15.40
2019-04-30T18:32:17.093Z,15.30
2019-04-30T18:34:46.687Z,15.30
2019-04-30T18:37:19.188Z,15.20
2019-04-30T18:39:52.232Z,15.20
2019-04-30T18:42:21.622Z,15.10
2019-04-30T18:44:53.450Z,15.10
2019-04-30T18:47:22.845Z,15.00
2019-04-30T18:49:52.158Z,15.00
2019-04-30T18:52:21.840Z,15.00
2019-04-30T18:54:51.211Z,14.90
2019-04-30T18:57:42.702Z,14.80
2019-04-30T19:00:19.783Z,14.70
2019-04-30T19:02:48.743Z,14.60
2019-04-30T19:05:25.283Z,14.60
2019-04-30T19:08:00.002Z,14.50
2019-04-30T19:11:00.503Z,14.50
2019-04-30T19:13:51.532Z,14.40
2019-04-30T19:16:51.948Z,14.30
2019-04-30T19:19:33.166Z,14.30
2019-04-30T19:22:02.866Z,14.30
2019-04-30T19:24:35.502Z,14.30
2019-04-30T19:27:05.135Z,14.20
2019-04-30T19:29:35.547Z,14.10
2019-04-30T19:32:09.505Z,14.10
2019-04-30T19:34:39.098Z,14.10
2019-04-30T19:37:10.220Z,14.10
2019-04-30T19:39:39.789Z,13.90
2019-04-30T19:42:09.306Z,13.90
2019-04-30T19:44:39.553Z,13.80
2019-04-30T19:47:14.610Z,13.80
2019-04-30T19:49:44.626Z,13.80
2019-04-30T19:52:24.962Z,13.70
2019-04-30T19:54:54.233Z,13.60
2019-04-30T19:57:24.296Z,13.50
2019-04-30T19:59:54.309Z,13.50
2019-04-30T20:02:25.287Z,13.50
2019-04-30T20:04:55.927Z,13.40
2019-04-30T20:08:10.816Z,13.40
2019-04-30T20:10:39.858Z,13.30
2019-04-30T20:13:10.809Z,13.20
2019-04-30T20:15:40.376Z,13.10
2019-04-30T20:18:13.216Z,13.20
2019-04-30T20:20:44.839Z,13.20
2019-04-30T20:23:15.567Z,13.20
2019-04-30T20:25:45.786Z,13.10
2019-04-30T20:28:15.339Z,13.10
2019-04-30T20:30:44.707Z,13.10
2019-04-30T20:33:18.924Z,13.10
2019-04-30T20:35:49.058Z,12.90
2019-04-30T20:38:56.784Z,12.90
2019-04-30T20:41:28.861Z,12.90
2019-04-30T20:44:02.078Z,12.90
2019-04-30T20:46:35.202Z,12.80
2019-04-30T20:49:02.727Z,12.80
2019-04-30T20:52:16.206Z,12.70
2019-04-30T20:55:40.850Z,12.60
2019-04-30T20:58:09.930Z,12.60
2019-04-30T21:00:39.298Z,12.50
2019-04-30T21:03:09.806Z,12.40
2019-04-30T21:05:47.308Z,12.30
2019-04-30T21:08:18.589Z,12.30
2019-04-30T21:10:49.408Z,12.20
2019-04-30T21:13:19.473Z,12.10
2019-04-30T21:15:49.595Z,12.00
2019-04-30T21:18:32.416Z,12.00
2019-04-30T21:21:04.436Z,11.90
2019-04-30T21:23:33.702Z,11.90
2019-04-30T21:26:03.025Z,11.80
2019-04-30T21:28:34.060Z,11.80
2019-04-30T21:31:22.457Z,11.70
2019-04-30T21:33:54.666Z,11.60
2019-04-30T21:36:25.433Z,11.50
2019-04-30T21:38:54.783Z,11.50
2019-04-30T21:41:24.114Z,11.40
2019-04-30T21:44:06.350Z,11.30
2019-04-30T21:46:37.600Z,11.20
2019-04-30T21:49:08.753Z,11.10
2019-04-30T21:51:40.110Z,11.10
2019-04-30T21:54:08.896Z,11.00
2019-04-30T21:56:38.188Z,10.80
2019-04-30T21:59:08.268Z,10.80
2019-04-30T22:01:37.793Z,10.80
2019-04-30T22:04:08.283Z,10.60
2019-04-30T22:06:39.427Z,10.50
2019-04-30T22:09:10.574Z,10.50
2019-04-30T22:11:40.953Z,10.50
2019-04-30T22:14:10.344Z,10.50
2019-04-30T22:16:39.909Z,10.40
2019-04-30T22:19:09.288Z,10.40
2019-04-30T22:21:39.597Z,10.30
2019-04-30T22:24:08.982Z,10.20
2019-04-30T22:26:38.370Z,10.20
2019-04-30T22:29:09.252Z,10.10
2019-04-30T22:31:39.619Z,10.00
2019-04-30T22:34:08.966Z,10.00
2019-04-30T22:36:42.570Z,9.90
2019-04-30T22:39:30.129Z,9.90
2019-04-30T22:42:20.112Z,9.90
2019-04-30T22:44:49.720Z,9.80
2019-04-30T22:47:19.128Z,9.90
2019-04-30T22:49:48.381Z,9.70
2019-04-30T22:52:17.714Z,9.70
2019-04-30T22:54:46.963Z,9.60
2019-04-30T22:57:16.144Z,9.60
2019-04-30T22:59:49.958Z,9.60
2019-04-30T23:02:25.274Z,9.50
2019-04-30T23:04:59.257Z,9.40
2019-04-30T23:07:28.502Z,9.40
2019-04-30T23:09:57.819Z,9.40
2019-04-30T23:12:27.147Z,9.30
2019-04-30T23:14:56.418Z,9.20
2019-04-30T23:17:25.685Z,9.10
2019-04-30T23:19:54.938Z,9.20
2019-04-30T23:22:26.396Z,9.10
2019-04-30T23:24:55.652Z,9.00
2019-04-30T23:27:24.829Z,9.00
2019-04-30T23:30:03.147Z,9.00
2019-04-30T23:32:25.098Z,8.90
2019-04-30T23:34:54.399Z,8.90
2019-04-30T23:37:23.710Z,8.80
2019-04-30T23:39:53.041Z,8.80
2019-04-30T23:42:22.218Z,8.80
2019-04-30T23:44:51.473Z,8.80
2019-04-30T23:47:20.705Z,8.70
2019-04-30T23:49:49.947Z,8.70
2019-04-30T23:52:19.189Z,8.70
2019-04-30T23:54:48.817Z,8.60
2019-04-30T23:57:18.095Z,8.60
2019-04-30T23:59:48.303Z,8.60
